Time;durP1;ratioP1;P1;durP2;ratioP2;P2;SDS_P1;SDS_P2;PMS_P1;PMS_P2;Temp;Humidity;BMP_temperature;BMP_pressure;BME280_temperature;BME280_humidity;BME280_pressure;Samples;Min_cycle;Max_cycle;Signal;HPM_P1;HPM_P2
2023/05/22 00:01:36;;;;;;;13.98;12.50;;;15.30;99.90;;;14.43;100.00;97476.28;4990596;28;20078;-76
2023/05/22 00:04:03;;;;;;;14.60;13.10;;;15.30;99.90;;;14.20;100.00;97466.38;4993489;28;20053;-77
2023/05/22 00:06:32;;;;;;;16.23;14.30;;;15.30;99.90;;;14.12;100.00;97461.63;4986040;28;20125;-77
2023/05/22 00:09:00;;;;;;;15.80;14.10;;;15.20;99.90;;;14.08;100.00;97467.09;4999633;28;20128;-77
2023/05/22 00:11:27;;;;;;;16.92;13.85;;;15.20;99.90;;;13.97;100.00;97470.31;5003665;28;20053;-77
2023/05/22 00:13:54;;;;;;;15.98;13.30;;;15.10;99.90;;;13.89;100.00;97475.13;4979989;28;20695;-76
2023/05/22 00:16:21;;;;;;;15.32;13.73;;;15.00;99.90;;;13.87;100.00;97482.25;4993343;28;20049;-76
2023/05/22 00:18:49;;;;;;;16.17;14.02;;;15.00;99.90;;;13.79;100.00;97483.50;4993641;28;20046;-77
2023/05/22 00:21:17;;;;;;;15.63;13.65;;;14.90;99.90;;;13.76;100.00;97495.88;5007124;28;20394;-76
2023/05/22 00:23:44;;;;;;;16.58;14.88;;;14.90;99.90;;;13.88;100.00;97499.56;5005942;28;20060;-76
2023/05/22 00:26:15;;;;;;;16.52;14.82;;;14.90;99.90;;;13.83;100.00;97509.44;5004968;28;20462;-75
2023/05/22 00:28:42;;;;;;;18.48;15.35;;;14.90;99.90;;;13.84;100.00;97504.09;4991688;28;20062;-76
2023/05/22 00:31:10;;;;;;;15.93;14.10;;;14.90;99.90;;;13.81;100.00;97509.50;5006094;28;20050;-76
2023/05/22 00:33:37;;;;;;;16.98;15.25;;;14.90;99.90;;;13.79;100.00;97512.19;5010267;28;20053;-76
2023/05/22 00:36:05;;;;;;;19.40;15.48;;;14.80;99.90;;;13.73;100.00;97515.16;4999980;28;20141;-77
2023/05/22 00:38:35;;;;;;;16.55;14.85;;;14.80;99.90;;;13.81;100.00;97518.16;5010398;28;20416;-75
2023/05/22 00:41:05;;;;;;;16.30;14.57;;;14.80;99.90;;;13.84;100.00;97522.38;4991576;28;20105;-76
2023/05/22 00:43:33;;;;;;;18.65;15.90;;;14.80;99.90;;;13.90;100.00;97521.19;4984439;28;20069;-76
2023/05/22 00:46:00;;;;;;;16.85;14.70;;;14.80;99.90;;;13.88;100.00;97531.72;4988861;28;20060;-76
2023/05/22 00:48:27;;;;;;;16.35;14.65;;;14.80;99.90;;;13.92;100.00;97522.78;5003205;28;20105;-76
2023/05/22 00:50:57;;;;;;;16.75;14.82;;;14.80;99.90;;;13.87;100.00;97521.38;5009110;28;20057;-76
2023/05/22 00:53:27;;;;;;;17.85;15.68;;;14.80;99.90;;;13.80;100.00;97526.09;5007707;28;20557;-76
2023/05/22 00:55:56;;;;;;;16.83;15.23;;;14.80;99.90;;;13.89;100.00;97525.56;4998535;28;20141;-77
2023/05/22 00:58:25;;;;;;;18.50;16.00;;;14.80;99.90;;;13.90;100.00;97522.03;4969304;28;20054;-76
2023/05/22 01:00:54;;;;;;;15.55;13.95;;;14.80;99.90;;;14.03;100.00;97522.19;4978835;28;20053;-77
2023/05/22 01:03:24;;;;;;;17.08;15.27;;;14.80;99.90;;;13.99;100.00;97511.06;5005182;28;20573;-75
2023/05/22 01:05:54;;;;;;;18.27;16.48;;;14.80;99.90;;;14.01;100.00;97509.19;5008308;28;20470;-76
2023/05/22 01:08:22;;;;;;;17.83;15.93;;;14.90;99.90;;;14.04;100.00;97510.78;5005496;28;20173;-76
2023/05/22 01:11:04;;;;;;;17.50;15.63;;;14.90;99.90;;;14.04;100.00;97515.19;4991365;28;20582;-76
2023/05/22 01:13:50;;;;;;;18.80;16.23;;;14.90;99.90;;;13.94;100.00;97507.88;4993733;28;20049;-76
2023/05/22 01:16:33;;;;;;;19.77;14.07;;;14.90;99.90;;;14.02;100.00;97497.00;5013134;28;20323;-76
2023/05/22 01:19:40;;;;;;;16.38;14.60;;;14.90;99.90;;;14.04;100.00;97489.91;4979778;28;20050;-76
2023/05/22 01:22:57;;;;;;;16.92;14.55;;;14.90;99.90;;;13.94;100.00;97483.56;5005535;28;20050;-76
2023/05/22 01:25:42;;;;;;;14.15;12.45;;;14.90;99.90;;;14.02;100.00;97481.34;5011053;28;20124;-76
2023/05/22 01:28:45;;;;;;;16.38;14.27;;;14.90;99.90;;;14.05;100.00;97473.34;5011742;28;20526;-76
2023/05/22 01:31:16;;;;;;;15.75;14.07;;;14.90;99.90;;;14.02;100.00;97469.13;4988539;28;20081;-76
2023/05/22 01:33:54;;;;;;;15.80;13.33;;;14.90;99.90;;;14.09;100.00;97474.00;5002623;28;20056;-76
2023/05/22 01:36:29;;;;;;;13.23;11.82;;;14.90;99.90;;;14.11;100.00;97467.75;4977382;28;20124;-78
2023/05/22 01:39:00;;;;;;;13.20;11.75;;;15.00;99.90;;;14.02;100.00;97463.91;5000415;28;20145;-76
2023/05/22 01:41:28;;;;;;;14.90;13.30;;;15.00;99.90;;;13.95;100.00;97465.19;4995005;28;20517;-77
2023/05/22 01:43:56;;;;;;;16.65;15.00;;;15.00;99.90;;;13.83;100.00;97476.34;4992206;28;20061;-77
2023/05/22 01:46:29;;;;;;;17.73;14.73;;;14.90;99.90;;;13.83;100.00;97471.13;4992956;28;20089;-75
2023/05/22 01:48:56;;;;;;;;;;;14.90;99.90;;;13.77;100.00;97477.53;4979284;28;20057;-76
2023/05/22 01:51:52;;;;;;;18.08;16.05;;;14.80;99.90;;;13.73;100.00;97476.03;4994726;28;19926;-76
2023/05/22 01:54:34;;;;;;;18.02;15.75;;;14.70;99.90;;;13.69;100.00;97484.97;4995361;28;20517;-76
2023/05/22 01:57:16;;;;;;;18.80;16.80;;;14.70;99.90;;;13.57;100.00;97494.31;4993511;28;20593;-76
2023/05/22 01:59:53;;;;;;;19.93;17.93;;;14.60;99.90;;;13.39;100.00;97501.38;5004518;28;20092;-75
2023/05/22 02:02:22;;;;;;;16.63;14.95;;;14.50;99.90;;;13.37;100.00;97499.81;4981457;28;20049;-76
2023/05/22 02:04:58;;;;;;;17.58;15.70;;;14.50;99.90;;;13.21;100.00;97496.31;4988660;28;20061;-76
2023/05/22 02:07:27;;;;;;;17.25;15.45;;;14.40;99.90;;;13.18;100.00;97505.13;4994443;28;20550;-76
2023/05/22 02:09:56;;;;;;;17.00;15.27;;;14.30;99.90;;;13.26;100.00;97507.34;4996421;28;20054;-76
2023/05/22 02:12:24;;;;;;;19.70;15.43;;;14.30;99.90;;;13.34;100.00;97505.16;4993787;28;20050;-76
2023/05/22 02:14:51;;;;;;;19.15;16.45;;;14.30;99.90;;;13.35;100.00;97517.28;4952924;28;1469180;-76
2023/05/22 02:17:20;;;;;;;18.08;16.10;;;14.30;99.90;;;13.48;100.00;97502.66;4992362;28;20132;-76
2023/05/22 02:19:48;;;;;;;15.90;14.23;;;14.30;99.90;;;13.40;100.00;97507.44;4983782;28;20054;-76
2023/05/22 02:22:14;;;;;;;20.08;14.57;;;14.30;99.90;;;13.39;100.00;97495.34;5006829;28;20597;-76
2023/05/22 02:24:47;;;;;;;15.05;13.45;;;14.30;99.90;;;13.36;100.00;97485.94;5005799;28;20128;-76
2023/05/22 02:27:16;;;;;;;15.15;12.43;;;14.30;99.90;;;13.37;100.00;97486.75;4995106;28;20051;-76
2023/05/22 02:29:43;;;;;;;18.33;16.42;;;14.30;99.90;;;13.26;100.00;97491.69;4989015;28;20088;-76
2023/05/22 02:32:10;;;;;;;16.30;14.10;;;14.30;99.90;;;13.24;100.00;97494.38;4998272;28;20050;-77
2023/05/22 02:34:37;;;;;;;18.70;15.45;;;14.30;99.90;;;13.18;100.00;97497.31;4977496;28;20061;-76
2023/05/22 02:37:05;;;;;;;16.35;14.65;;;14.20;99.90;;;13.19;100.00;97496.41;5004854;28;20057;-76
2023/05/22 02:39:32;;;;;;;16.98;15.18;;;14.20;99.90;;;13.22;100.00;97479.75;5005383;28;20668;-76
2023/05/22 02:41:59;;;;;;;16.88;15.13;;;14.20;99.90;;;13.26;100.00;97482.09;5008927;28;20136;-76
2023/05/22 02:44:26;;;;;;;16.75;15.05;;;14.20;99.90;;;13.20;100.00;97477.22;5007114;28;20041;-76
2023/05/22 02:46:53;;;;;;;17.42;14.30;;;14.20;99.90;;;13.19;100.00;97473.78;5007355;28;20042;-76
2023/05/22 02:49:21;;;;;;;15.70;13.18;;;14.20;99.90;;;13.16;100.00;97468.75;5007671;28;20127;-76
2023/05/22 02:51:48;;;;;;;16.02;13.35;;;14.20;99.90;;;13.16;100.00;97457.47;5013940;28;20049;-76
2023/05/22 02:54:15;;;;;;;15.20;13.68;;;14.10;99.90;;;13.13;100.00;97462.84;4993149;28;20133;-76
2023/05/22 02:56:43;;;;;;;20.33;18.33;;;14.00;99.90;;;12.81;100.00;97470.63;5005548;28;20089;-76
2023/05/22 02:59:10;;;;;;;17.00;15.20;;;14.00;99.90;;;12.96;100.00;97474.19;4989637;28;20448;-76
2023/05/22 03:01:38;;;;;;;18.98;17.00;;;14.00;99.90;;;12.92;100.00;97483.09;4989042;28;20144;-76
2023/05/22 03:04:05;;;;;;;17.63;15.82;;;14.00;99.90;;;12.87;100.00;97478.13;4997920;28;20095;-76
2023/05/22 03:06:34;;;;;;;16.70;15.10;;;13.90;99.90;;;12.68;100.00;97465.25;4986228;28;20054;-76
2023/05/22 03:09:03;;;;;;;16.63;14.27;;;13.90;99.90;;;12.66;100.00;97474.06;5010035;28;20065;-77
2023/05/22 03:11:33;;;;;;;19.20;15.77;;;13.80;99.90;;;12.64;100.00;97475.91;4991471;28;20069;-75
2023/05/22 03:14:00;;;;;;;20.15;17.50;;;13.70;99.90;;;12.43;100.00;97476.09;4988888;28;20081;-76
2023/05/22 03:16:27;;;;;;;17.98;15.55;;;13.60;99.90;;;12.32;100.00;97484.47;4987238;28;20057;-76
2023/05/22 03:19:13;;;;;;;18.50;15.73;;;13.60;99.90;;;12.33;100.00;97485.28;5007500;28;20050;-76
2023/05/22 03:21:43;;;;;;;18.17;16.27;;;13.50;99.90;;;12.47;100.00;97489.78;4988823;28;20550;-75
2023/05/22 03:24:13;;;;;;;18.27;16.05;;;13.50;99.90;;;12.32;100.00;97489.66;4990253;28;20076;-76
2023/05/22 03:26:43;;;;;;;19.48;17.48;;;13.40;99.90;;;12.39;100.00;97489.34;4995265;28;20053;-76
2023/05/22 03:29:10;;;;;;;18.50;16.67;;;13.40;99.90;;;12.52;100.00;97498.19;4994367;28;20461;-75
2023/05/22 03:31:37;;;;;;;22.45;19.52;;;13.40;99.90;;;12.40;100.00;97504.03;4998699;28;20066;-76
2023/05/22 03:34:06;;;;;;;20.83;18.05;;;13.50;99.90;;;12.47;100.00;97508.84;4987996;28;20227;-75
2023/05/22 03:36:33;;;;;;;19.50;17.38;;;13.50;99.90;;;12.49;100.00;97507.00;5001673;28;20045;-75
2023/05/22 03:39:02;;;;;;;17.63;15.70;;;13.40;99.90;;;12.48;100.00;97499.28;4976097;28;20102;-75
2023/05/22 03:41:30;;;;;;;19.42;16.75;;;13.50;99.90;;;12.51;100.00;97489.53;4991765;28;20454;-76
2023/05/22 03:43:57;;;;;;;17.73;15.65;;;13.50;99.90;;;12.48;100.00;97489.72;5009030;28;20061;-76
2023/05/22 03:46:26;;;;;;;21.73;18.27;;;13.50;99.90;;;12.27;100.00;97483.00;4986518;28;20049;-76
2023/05/22 03:48:54;;;;;;;17.63;15.75;;;13.40;99.90;;;12.28;100.00;97489.91;5014101;28;20057;-76
2023/05/22 03:51:22;;;;;;;18.20;14.82;;;13.40;99.90;;;12.40;100.00;97484.06;5006115;28;20058;-76
2023/05/22 03:53:49;;;;;;;16.55;14.77;;;13.40;99.90;;;12.45;100.00;97483.81;4990909;28;20190;-76
2023/05/22 03:56:20;;;;;;;19.00;15.45;;;13.40;99.90;;;12.48;100.00;97487.13;5007208;28;20142;-76
2023/05/22 03:58:48;;;;;;;20.00;14.98;;;13.40;99.90;;;12.45;100.00;97481.22;5010303;28;20108;-76
2023/05/22 04:01:16;;;;;;;19.38;16.30;;;13.40;99.90;;;12.49;100.00;97480.97;5010134;28;20057;-76
2023/05/22 04:03:43;;;;;;;16.15;14.55;;;13.50;99.90;;;12.50;100.00;97479.22;4993411;28;20050;-76
2023/05/22 04:06:12;;;;;;;19.50;17.33;;;13.40;99.90;;;12.45;100.00;97474.25;5001636;28;20041;-76
2023/05/22 04:08:40;;;;;;;18.38;16.25;;;13.50;99.90;;;12.49;100.00;97474.94;4989983;28;20132;-76
2023/05/22 04:11:07;;;;;;;19.20;17.10;;;13.40;99.90;;;12.51;100.00;97476.53;5005198;28;20507;-76
2023/05/22 04:13:34;;;;;;;18.40;15.93;;;13.40;99.90;;;12.47;100.00;97476.78;4989129;28;20471;-75
2023/05/22 04:16:03;;;;;;;20.23;18.05;;;13.40;99.90;;;12.33;100.00;97475.72;4987765;28;20046;-75
2023/05/22 04:18:31;;;;;;;17.50;15.35;;;13.40;99.90;;;12.56;100.00;97489.31;4992571;28;20041;-76
2023/05/22 04:20:58;;;;;;;17.48;15.68;;;13.40;99.90;;;12.47;100.00;97481.97;5006093;28;20054;-76
2023/05/22 04:23:25;;;;;;;18.48;16.58;;;13.40;99.90;;;12.40;100.00;97481.44;4981023;28;20417;-75
2023/05/22 04:25:53;;;;;;;19.15;16.35;;;13.40;99.90;;;12.40;100.00;97491.03;4996969;28;21028;-76
2023/05/22 04:28:21;;;;;;;20.85;18.58;;;13.30;99.90;;;12.33;100.00;97493.09;4987639;28;20049;-76
2023/05/22 04:30:48;;;;;;;19.30;17.30;;;13.30;99.90;;;12.37;100.00;97488.59;4993240;28;20082;-76
2023/05/22 04:33:16;;;;;;;20.30;16.70;;;13.30;99.90;;;12.43;100.00;97496.06;5004873;28;20517;-76
2023/05/22 04:35:44;;;;;;;19.20;17.20;;;13.40;99.90;;;12.44;100.00;97489.94;5002512;28;20051;-75
2023/05/22 04:38:11;;;;;;;19.48;17.55;;;13.40;99.90;;;12.52;100.00;97492.97;4990854;28;20116;-75
2023/05/22 04:40:39;;;;;;;17.75;15.88;;;13.40;99.90;;;12.62;100.00;97494.22;5008651;28;20132;-76
2023/05/22 04:43:07;;;;;;;22.60;19.05;;;13.40;99.90;;;12.53;100.00;97503.34;4996491;28;20064;-76
2023/05/22 04:45:34;;;;;;;22.02;19.73;;;13.50;99.90;;;12.50;100.00;97505.28;5006056;28;20113;-75
2023/05/22 04:48:02;;;;;;;21.75;19.13;;;13.50;99.90;;;12.51;100.00;97505.16;4970756;28;20136;-75
2023/05/22 04:50:31;;;;;;;21.05;18.80;;;13.50;99.90;;;12.63;100.00;97513.28;5002592;28;20058;-76
2023/05/22 04:52:59;;;;;;;20.23;18.02;;;13.50;99.90;;;12.71;100.00;97501.53;5001865;28;20053;-76
2023/05/22 04:55:26;;;;;;;20.95;18.83;;;13.50;99.90;;;12.81;100.00;97509.69;4998969;28;20496;-76
2023/05/22 04:57:55;;;;;;;19.67;17.20;;;13.60;99.90;;;12.93;100.00;97501.25;4983399;28;20166;-75
2023/05/22 05:00:25;;;;;;;18.42;16.42;;;13.70;99.90;;;13.11;100.00;97501.16;4985879;28;20045;-76
2023/05/22 05:02:52;;;;;;;19.15;17.15;;;13.80;99.90;;;13.01;100.00;97493.03;4989788;28;20052;-76
2023/05/22 05:05:19;;;;;;;20.27;18.17;;;13.90;99.90;;;13.15;100.00;97494.88;4982363;28;20065;-75
2023/05/22 05:07:48;;;;;;;20.75;18.65;;;14.00;99.90;;;13.23;100.00;97505.75;4964679;28;20053;-76
2023/05/22 05:10:16;;;;;;;21.85;19.63;;;14.10;99.90;;;13.26;100.00;97507.34;4985686;28;20050;-76
2023/05/22 05:12:43;;;;;;;19.83;17.77;;;14.10;99.90;;;13.34;100.00;97508.63;4987589;28;20136;-76
2023/05/22 05:15:11;;;;;;;19.48;17.38;;;14.20;99.90;;;13.46;100.00;97511.50;4994197;28;20058;-76
2023/05/22 05:17:38;;;;;;;19.63;17.63;;;14.20;99.90;;;13.60;100.00;97519.38;5006621;28;20082;-77
2023/05/22 05:20:07;;;;;;;19.45;17.13;;;14.30;99.90;;;13.69;100.00;97515.44;4991994;28;20444;-76
2023/05/22 05:22:34;;;;;;;20.25;17.60;;;14.40;99.90;;;13.90;100.00;97522.03;4982660;28;20153;-76
2023/05/22 05:25:04;;;;;;;20.77;17.83;;;14.50;99.90;;;14.05;100.00;97529.91;5007892;28;20489;-76
2023/05/22 05:27:31;;;;;;;20.65;18.48;;;14.60;99.90;;;14.20;100.00;97527.25;4999916;28;20046;-76
2023/05/22 05:29:59;;;;;;;16.92;15.23;;;14.70;99.90;;;14.59;100.00;97530.25;4981222;28;20053;-76
2023/05/22 05:32:26;;;;;;;17.05;15.25;;;14.90;99.90;;;14.97;100.00;97527.94;4997277;28;20073;-76
2023/05/22 05:34:55;;;;;;;17.10;15.30;;;15.10;99.90;;;15.14;100.00;97513.81;4997852;28;20588;-76
2023/05/22 05:37:24;;;;;;;24.27;21.83;;;15.30;99.90;;;14.98;100.00;97493.03;5008596;28;20140;-76
2023/05/22 05:39:51;;;;;;;21.45;19.23;;;15.20;99.90;;;14.99;100.00;97480.81;5000336;28;20518;-76
2023/05/22 05:42:18;;;;;;;23.25;20.75;;;15.20;99.90;;;15.21;100.00;97481.16;5000363;28;20085;-76
2023/05/22 05:44:46;;;;;;;22.73;20.30;;;15.30;99.90;;;15.22;100.00;97471.53;5016028;28;20193;-76
2023/05/22 05:47:13;;;;;;;21.40;19.15;;;15.50;99.90;;;15.43;100.00;97474.56;5005176;28;20077;-76
2023/05/22 05:49:40;;;;;;;21.52;19.42;;;15.70;99.90;;;15.71;100.00;97470.19;5003514;28;20054;-75
2023/05/22 05:52:07;;;;;;;22.38;20.08;;;15.90;99.90;;;15.85;100.00;97467.50;5012023;28;20136;-75
2023/05/22 05:54:35;;;;;;;20.35;18.13;;;16.10;99.90;;;16.28;100.00;97454.16;5015521;28;20074;-75
2023/05/22 05:57:03;;;;;;;19.52;17.45;;;16.30;99.90;;;16.52;100.00;97449.88;4993451;28;20053;-76
2023/05/22 05:59:31;;;;;;;21.92;19.55;;;16.60;99.90;;;16.55;100.00;97448.81;4994686;28;20053;-76
2023/05/22 06:01:58;;;;;;;23.15;20.52;;;16.70;99.90;;;16.65;100.00;97439.41;4996983;28;20071;-76
2023/05/22 06:04:26;;;;;;;25.00;22.45;;;16.60;99.90;;;16.22;100.00;97433.66;5007585;28;20534;-76
2023/05/22 06:06:54;;;;;;;24.70;21.77;;;16.60;99.90;;;16.31;100.00;97433.03;4998640;28;20148;-75
2023/05/22 06:09:21;;;;;;;24.02;21.52;;;16.60;99.90;;;16.30;100.00;97440.03;5014046;28;20112;-76
2023/05/22 06:11:48;;;;;;;24.30;21.80;;;16.70;99.90;;;16.32;100.00;97445.16;4992645;28;20057;-76
2023/05/22 06:14:15;;;;;;;25.25;22.65;;;16.70;99.90;;;16.39;100.00;97450.81;4991712;28;20133;-76
2023/05/22 06:16:42;;;;;;;22.70;20.38;;;16.70;99.90;;;16.70;100.00;97441.69;4994235;28;20049;-76
2023/05/22 06:19:14;;;;;;;20.45;18.27;;;16.70;99.90;;;17.08;100.00;97444.28;4994537;28;20049;-76
2023/05/22 06:21:41;;;;;;;20.77;18.73;;;16.80;99.90;;;17.29;100.00;97430.59;4989085;28;20088;-76
2023/05/22 06:24:08;;;;;;;23.65;21.15;;;17.00;99.90;;;17.37;100.00;97430.00;4987015;28;20137;-76
2023/05/22 06:26:35;;;;;;;21.67;19.48;;;17.10;99.90;;;17.38;100.00;97429.06;5007440;28;20912;-75
2023/05/22 06:29:03;;;;;;;22.45;17.50;;;17.30;99.90;;;17.82;100.00;97427.63;5011931;28;20398;-75
2023/05/22 06:31:34;;;;;;;22.00;18.83;;;17.50;99.90;;;17.87;100.00;97410.56;5011710;28;20107;-76
2023/05/22 06:34:01;;;;;;;18.10;16.30;;;17.70;99.90;;;18.42;100.00;97402.06;5016357;28;20049;-76
2023/05/22 06:36:28;;;;;;;19.55;17.40;;;18.00;99.90;;;18.71;100.00;97392.75;4994788;28;20124;-76
2023/05/22 06:38:55;;;;;;;18.13;16.33;;;18.40;99.90;;;19.19;100.00;97384.56;5005165;28;20073;-76
2023/05/22 06:41:22;;;;;;;18.80;16.23;;;18.80;99.90;;;19.41;100.00;97365.25;4996453;28;20141;-76
2023/05/22 06:43:50;;;;;;;17.70;15.20;;;19.10;99.90;;;19.63;100.00;97356.41;4990686;28;20077;-76
2023/05/22 06:46:18;;;;;;;18.58;14.73;;;19.50;99.90;;;19.77;100.00;97349.19;5007826;28;20049;-76
2023/05/22 06:48:45;;;;;;;19.15;15.68;;;19.70;99.90;;;20.03;100.00;97347.84;4982557;28;20053;-76
2023/05/22 06:51:13;;;;;;;16.45;14.23;;;19.90;99.90;;;19.98;100.00;97338.63;5016094;28;20057;-77
2023/05/22 06:53:41;;;;;;;18.52;14.65;;;20.10;99.90;;;19.90;100.00;97338.47;5008802;28;20050;-76
2023/05/22 06:56:08;;;;;;;16.25;13.90;;;20.20;99.90;;;19.94;100.00;97330.16;4988106;28;20050;-76
2023/05/22 06:58:35;;;;;;;14.85;13.25;;;20.30;99.90;;;19.82;100.00;97341.75;4987090;28;20096;-76
2023/05/22 07:01:03;;;;;;;17.63;14.27;;;20.30;99.90;;;19.87;100.00;97342.19;4999886;28;20526;-76
2023/05/22 07:03:30;;;;;;;16.30;14.68;;;20.20;99.90;;;19.96;100.00;97344.06;5000486;28;20522;-76
2023/05/22 07:05:58;;;;;;;16.58;14.88;;;20.40;99.90;;;20.02;100.00;97346.16;5003385;28;20128;-76
2023/05/22 07:08:28;;;;;;;17.25;14.40;;;20.40;99.90;;;19.99;100.00;97350.84;4989821;28;20529;-76
2023/05/22 07:11:00;;;;;;;16.45;13.35;;;20.40;99.90;;;20.00;100.00;97349.88;5003386;28;20152;-76
2023/05/22 07:13:30;;;;;;;16.20;14.50;;;20.50;99.90;;;19.90;100.00;97354.28;4989927;28;20053;-76
2023/05/22 07:15:58;;;;;;;18.58;14.73;;;20.50;99.90;;;19.87;100.00;97357.16;4987934;28;20813;-76
2023/05/22 07:18:25;;;;;;;17.02;14.45;;;20.60;99.90;;;20.07;100.00;97353.69;5004481;28;20532;-75
2023/05/22 07:20:53;;;;;;;15.90;14.30;;;20.40;99.90;;;20.48;100.00;97359.81;4993399;28;20403;-77
2023/05/22 07:23:20;;;;;;;18.55;15.15;;;20.60;99.90;;;20.01;100.00;97356.84;5008594;28;20391;-76
2023/05/22 07:25:47;;;;;;;17.73;15.82;;;20.70;99.90;;;20.13;100.00;97360.22;5008094;28;20053;-76
2023/05/22 07:28:14;;;;;;;16.55;14.63;;;20.60;99.90;;;20.32;100.00;97359.47;5006121;28;20054;-76
2023/05/22 07:30:42;;;;;;;16.58;14.80;;;20.70;99.90;;;20.25;100.00;97353.91;5005064;28;20038;-76
2023/05/22 07:33:10;;;;;;;16.75;14.95;;;20.90;99.90;;;20.29;100.00;97359.75;5009289;28;20521;-75
2023/05/22 07:35:37;;;;;;;21.80;15.77;;;20.80;99.90;;;20.40;100.00;97365.78;4963729;28;20050;-76
2023/05/22 07:38:05;;;;;;;17.02;14.75;;;20.90;99.90;;;20.52;100.00;97357.78;5008919;28;20136;-75
2023/05/22 07:40:32;;;;;;;16.83;14.93;;;21.00;99.90;;;20.46;100.00;97359.97;4992773;28;20128;-76
2023/05/22 07:42:59;;;;;;;22.00;16.05;;;21.00;99.90;;;20.83;100.00;97354.16;5005577;28;20097;-76
2023/05/22 07:45:26;;;;;;;16.58;14.88;;;21.10;99.90;;;20.98;100.00;97361.69;5006337;28;20213;-75
2023/05/22 07:47:54;;;;;;;18.55;15.18;;;21.30;99.90;;;20.75;100.00;97359.25;5009660;28;20037;-76
2023/05/22 07:50:22;;;;;;;20.45;14.80;;;21.30;99.90;;;21.27;100.00;97357.28;5004699;28;20045;-77
2023/05/22 07:52:49;;;;;;;16.02;14.05;;;21.40;99.90;;;21.20;100.00;97350.88;4991369;28;20128;-76
2023/05/22 07:55:16;;;;;;;15.68;14.02;;;21.80;99.90;;;21.77;100.00;97363.44;5004488;28;20060;-76
2023/05/22 07:57:44;;;;;;;15.30;13.70;;;21.90;99.90;;;21.70;100.00;97358.69;5003081;28;20073;-75
2023/05/22 08:00:13;;;;;;;19.45;13.10;;;22.10;99.90;;;21.79;100.00;97356.22;4994550;28;20392;-77
2023/05/22 08:02:41;;;;;;;15.10;12.27;;;;;;;22.40;100.00;97358.44;5003251;28;20128;-77
2023/05/22 08:05:11;;;;;;;19.60;13.32;;;22.40;99.90;;;22.69;100.00;97355.69;5005415;28;20046;-77
2023/05/22 08:07:39;;;;;;;16.10;14.07;;;22.70;99.90;;;22.46;100.00;97364.97;4994516;28;20196;-77
2023/05/22 08:10:14;;;;;;;14.82;13.10;;;22.90;99.90;;;22.28;100.00;97352.53;4979025;28;20041;-76
2023/05/22 08:12:41;;;;;;;14.65;12.65;;;23.10;99.90;;;22.86;100.00;97356.69;5002458;28;20045;-77
2023/05/22 08:15:09;;;;;;;14.00;11.60;;;23.00;99.90;;;22.72;100.00;97357.22;4973559;28;20054;-77
2023/05/22 08:17:37;;;;;;;13.60;12.15;;;23.20;99.90;;;23.04;100.00;97356.78;4971488;28;20069;-77
2023/05/22 08:20:05;;;;;;;14.55;11.63;;;23.40;99.90;;;22.95;100.00;97358.47;5005053;28;20096;-77
2023/05/22 08:22:33;;;;;;;16.10;12.52;;;23.40;99.90;;;22.97;100.00;97359.16;5009252;28;20076;-77
2023/05/22 08:25:00;;;;;;;15.75;11.65;;;23.50;99.90;;;23.43;100.00;97358.31;4997272;28;20983;-77
2023/05/22 08:27:28;;;;;;;13.52;12.13;;;23.60;99.90;;;23.74;100.00;97354.31;5000334;28;20122;-77
2023/05/22 08:29:55;;;;;;;14.65;11.95;;;23.80;99.90;;;24.14;100.00;97349.47;5001617;28;20471;-77
2023/05/22 08:32:24;;;;;;;12.98;11.65;;;23.90;99.90;;;24.62;100.00;97353.38;4998378;28;20050;-78
2023/05/22 08:34:51;;;;;;;14.38;11.50;;;24.30;99.90;;;25.29;100.00;97344.66;5003061;28;20060;-77
2023/05/22 08:37:18;;;;;;;14.00;11.70;;;24.60;99.90;;;24.96;100.00;97339.25;4989011;28;20066;-75
2023/05/22 08:39:45;;;;;;;14.90;11.25;;;24.80;99.90;;;26.12;100.00;97339.19;5004943;28;20375;-76
2023/05/22 08:42:13;;;;;;;12.10;10.45;;;24.90;99.90;;;26.38;100.00;97338.13;4988948;28;20060;-75
2023/05/22 08:44:40;;;;;;;12.07;10.88;;;25.40;99.90;;;26.21;100.00;97337.34;4991296;28;20249;-77
2023/05/22 08:47:12;;;;;;;13.98;10.90;;;25.70;99.90;;;26.70;100.00;97329.22;5012162;28;20046;-76
2023/05/22 08:49:40;;;;;;;13.85;10.40;;;26.20;99.90;;;26.11;100.00;97323.41;4987913;28;20046;-75
2023/05/22 08:52:13;;;;;;;10.32;9.20;;;26.30;99.90;;;25.90;100.00;97329.25;4985734;28;20077;-74
2023/05/22 08:54:42;;;;;;;13.50;9.88;;;26.50;99.90;;;26.06;100.00;97332.72;4988092;28;20077;-74
2023/05/22 08:57:09;;;;;;;17.00;10.48;;;26.70;99.90;;;25.73;100.00;97331.91;4982791;28;20053;-75
2023/05/22 08:59:39;;;;;;;12.23;10.15;;;27.20;99.90;;;26.67;100.00;97335.72;4991819;28;20049;-77
2023/05/22 09:02:08;;;;;;;14.85;10.55;;;27.40;99.90;;;26.55;100.00;97328.28;5010574;28;20058;-76
2023/05/22 09:04:42;;;;;;;11.75;9.70;;;27.80;99.90;;;26.99;100.00;97317.94;5010102;28;20133;-76
2023/05/22 09:07:09;;;;;;;10.77;9.57;;;28.10;99.90;;;26.82;100.00;97327.00;4995424;28;20501;-76
2023/05/22 09:09:40;;;;;;;13.40;9.88;;;28.70;99.90;;;27.74;100.00;97319.09;4993903;28;20288;-76
2023/05/22 09:12:09;;;;;;;10.70;9.52;;;28.90;99.90;;;27.47;100.00;97323.97;5007049;28;20061;-77
2023/05/22 09:14:41;;;;;;;10.43;9.32;;;29.30;99.90;;;28.16;100.00;97325.72;4999570;28;20042;-75
2023/05/22 09:17:10;;;;;;;10.60;9.50;;;29.90;99.90;;;28.25;100.00;97321.13;4988239;28;20049;-76
2023/05/22 09:19:45;;;;;;;9.80;8.82;;;30.00;99.70;;;28.26;100.00;97318.28;4994112;28;20594;-73
2023/05/22 09:22:13;;;;;;;11.02;9.88;;;30.40;99.30;;;28.59;100.00;97323.25;4991254;28;20545;-75
2023/05/22 09:24:42;;;;;;;10.07;9.07;;;30.50;98.40;;;29.27;100.00;97320.38;4982291;28;20694;-74
2023/05/22 09:27:10;;;;;;;12.10;9.10;;;30.30;98.30;;;30.07;100.00;97319.25;4996738;28;20570;-76
2023/05/22 09:29:52;;;;;;;10.77;9.05;;;30.50;98.30;;;29.48;100.00;97316.88;5003761;28;20806;-75
2023/05/22 09:32:31;;;;;;;10.23;9.00;;;30.10;96.80;;;29.57;100.00;97323.75;4984647;28;20874;-75
2023/05/22 09:35:03;;;;;;;10.55;8.35;;;30.70;97.50;;;30.07;100.00;97321.09;4985189;28;20077;-76
2023/05/22 09:37:35;;;;;;;10.68;8.95;;;31.10;97.10;;;30.71;100.00;97306.66;4981653;28;20098;-80
2023/05/22 09:40:08;;;;;;;9.85;8.85;;;30.40;95.30;;;29.85;100.00;97318.44;5010382;28;20046;-78
2023/05/22 09:42:35;;;;;;;9.52;8.63;;;30.90;95.70;;;30.84;100.00;97315.59;5012720;28;20548;-75
2023/05/22 09:45:08;;;;;;;11.50;9.30;;;31.50;95.90;;;29.75;100.00;97320.66;5020469;28;20568;-75
2023/05/22 09:47:35;;;;;;;10.00;8.75;;;31.10;94.40;;;30.33;100.00;97317.78;5006215;28;20121;-76
2023/05/22 09:50:06;;;;;;;9.10;8.07;;;31.10;94.00;;;29.40;100.00;97307.97;4990548;28;20418;-75
2023/05/22 09:52:35;;;;;;;10.80;9.73;;;31.00;93.90;;;28.46;100.00;97315.03;4985087;28;20105;-77
2023/05/22 09:55:05;;;;;;;11.75;8.10;;;30.20;94.00;;;28.34;100.00;97307.50;5003576;28;20066;-74
2023/05/22 09:57:45;;;;;;;9.45;8.18;;;30.10;93.40;;;28.72;100.00;97306.59;4985728;28;20042;-73
2023/05/22 10:00:18;;;;;;;10.77;8.18;;;30.10;93.80;;;29.23;100.00;97306.56;5003107;28;20101;-74
2023/05/22 10:02:48;;;;;;;10.50;8.50;;;30.20;93.40;;;29.08;100.00;97300.44;5008150;28;20058;-77
2023/05/22 10:05:21;;;;;;;11.32;9.75;;;30.70;93.10;;;29.63;100.00;97298.06;4990691;28;20050;-76
2023/05/22 10:07:54;;;;;;;10.90;9.73;;;30.50;94.10;;;29.70;100.00;97301.69;5009869;28;20080;-76
2023/05/22 10:10:24;;;;;;;10.15;9.23;;;30.90;94.20;;;29.40;100.00;97297.28;4994144;28;20096;-77